createdAt,value
2022-10-17T00:01:02.869Z,102222.77
2022-10-17T00:03:30.497Z,102221.98
2022-10-17T04:21:29.494Z,102309.55
2022-10-17T04:23:58.994Z,102295.98
2022-10-17T04:26:27.370Z,102292.65
2022-10-17T04:28:55.061Z,102309.42
2022-10-17T04:31:22.778Z,102309.55
2022-10-17T04:33:51.867Z,102303.80
2022-10-17T04:36:21.207Z,102315.77
2022-10-17T04:38:48.769Z,102317.53
2022-10-17T04:41:18.799Z,102320.84
2022-10-17T04:43:50.117Z,102318.45
2022-10-17T04:46:19.478Z,102309.03
2022-10-17T04:48:47.227Z,102320.05
2022-10-17T04:51:19.644Z,102320.84
2022-10-17T04:53:49.601Z,102327.54
2022-10-17T04:56:19.991Z,102313.18
2022-10-17T04:58:48.296Z,102320.99
2022-10-17T05:01:20.756Z,102327.66
2022-10-17T05:03:48.909Z,102331.46
2022-10-17T05:06:19.473Z,102329.07
2022-10-17T05:08:47.814Z,102337.84
2022-10-17T05:11:25.182Z,102334.63
2022-10-17T05:13:58.306Z,102341.95
2022-10-17T05:16:27.354Z,102346.24
2022-10-17T05:18:57.762Z,102343.36
2022-10-17T05:21:27.106Z,102347.02
2022-10-17T05:23:55.181Z,102355.98
2022-10-17T05:26:24.490Z,102342.41
2022-10-17T05:28:53.559Z,102343.23
2022-10-17T05:31:21.685Z,102337.38
2022-10-17T05:33:49.427Z,102326.33
2022-10-17T05:36:17.133Z,102321.87
2022-10-17T05:38:44.849Z,102325.18
2022-10-17T05:41:12.481Z,102340.23
2022-10-17T05:43:40.145Z,102334.01
2022-10-17T05:46:08.109Z,102333.09
2022-10-17T05:48:36.216Z,102341.40
2022-10-17T05:51:10.664Z,102329.47
2022-10-17T05:53:40.952Z,102351.99
2022-10-17T05:56:11.534Z,102354.52
2022-10-17T05:58:50.377Z,102343.00
2022-10-17T06:01:20.097Z,102355.33
2022-10-17T06:03:47.725Z,102366.68
2022-10-17T06:06:16.109Z,102370.02
2022-10-17T06:08:44.422Z,102371.48
2022-10-17T06:11:13.257Z,102378.81
2022-10-17T06:13:42.506Z,102386.66
2022-10-17T06:16:10.377Z,102387.90
2022-10-17T06:18:38.012Z,102392.55
2022-10-17T06:21:08.191Z,102397.45
2022-10-17T06:23:35.991Z,102398.73
2022-10-17T06:26:06.036Z,102405.76
2022-10-17T06:28:34.285Z,102403.83
2022-10-17T06:31:09.170Z,102411.15
2022-10-17T06:33:36.971Z,102421.84
2022-10-17T06:36:06.141Z,102419.78
2022-10-17T06:38:36.016Z,102419.78
2022-10-17T06:41:15.335Z,102429.56
2022-10-17T06:43:46.696Z,102435.94
2022-10-17T06:46:16.224Z,102437.21
2022-10-17T06:48:44.549Z,102442.02
2022-10-17T06:51:12.715Z,102438.20
2022-10-17T06:53:41.712Z,102443.03
2022-10-17T06:56:10.528Z,102447.02
2022-10-17T06:58:40.767Z,102448.98
2022-10-17T07:01:13.354Z,102456.21
2022-10-17T07:03:42.263Z,102461.28
2022-10-17T07:06:12.321Z,102467.82
2022-10-17T07:08:44.423Z,102475.30
2022-10-17T07:11:16.793Z,102479.23
2022-10-17T07:13:45.174Z,102472.56
2022-10-17T07:16:13.782Z,102481.98
2022-10-17T07:18:42.222Z,102483.58
2022-10-17T07:21:10.591Z,102486.13
2022-10-17T07:23:38.362Z,102490.12
2022-10-17T07:26:11.042Z,102488.88
2022-10-17T07:28:41.357Z,102482.66
2022-10-17T07:31:14.431Z,102488.72
2022-10-17T07:33:42.893Z,102496.70
2022-10-17T07:36:10.720Z,102499.48
2022-10-17T07:38:38.847Z,102501.11
2022-10-17T07:41:08.649Z,102502.05
2022-10-17T07:43:40.092Z,102500.45
2022-10-17T07:46:07.765Z,102503.07
2022-10-17T07:48:35.471Z,102502.35
2022-10-17T07:51:04.672Z,102514.87
2022-10-17T07:53:32.353Z,102517.00
2022-10-17T07:56:00.008Z,102514.45
2022-10-17T07:58:29.752Z,102513.89
2022-10-17T08:03:30.783Z,102519.52
2022-10-17T08:06:00.321Z,102523.61
2022-10-17T08:08:28.794Z,102527.17
2022-10-17T08:10:57.466Z,102521.77
2022-10-17T08:13:25.158Z,102527.04
2022-10-17T08:15:52.828Z,102529.43
2022-10-17T08:18:20.437Z,102521.02
2022-10-17T08:20:49.654Z,102528.94
2022-10-17T08:23:17.318Z,102526.84
2022-10-17T08:25:44.959Z,102528.94
2022-10-17T08:28:12.666Z,102524.66
2022-10-17T08:30:40.338Z,102528.31
2022-10-17T08:33:07.994Z,102526.58
2022-10-17T08:35:35.653Z,102532.41
2022-10-17T08:38:03.437Z,102529.23
2022-10-17T08:40:36.516Z,102525.73
2022-10-17T08:43:33.270Z,102525.93
2022-10-17T08:46:06.220Z,102531.42
2022-10-17T08:48:44.023Z,102527.30
2022-10-17T08:51:20.374Z,102536.95
2022-10-17T08:53:52.549Z,102537.93
2022-10-17T08:56:47.566Z,102535.37
2022-10-17T08:59:21.208Z,102531.55
2022-10-17T09:02:01.202Z,102539.59
2022-10-17T09:04:40.930Z,102546.30
2022-10-17T09:07:17.458Z,102540.55
2022-10-17T09:10:05.425Z,102535.48
2022-10-17T09:12:39.114Z,102541.23
2022-10-17T09:15:23.438Z,102539.50
2022-10-17T09:18:12.462Z,102541.04
2022-10-17T09:20:52.692Z,102540.55
2022-10-17T09:23:26.895Z,102539.63
2022-10-17T09:25:57.129Z,102548.72
2022-10-17T09:28:37.239Z,102546.34
2022-10-17T09:31:12.940Z,102549.90
2022-10-17T09:33:54.853Z,102548.13
2022-10-17T09:36:37.691Z,102538.55
2022-10-17T09:39:13.395Z,102547.64
2022-10-17T09:41:46.479Z,102544.89
2022-10-17T09:44:17.917Z,102560.10
2022-10-17T09:47:09.733Z,102546.86
2022-10-17T09:49:40.598Z,102552.61
2022-10-17T09:52:16.221Z,102550.23
2022-10-17T09:54:54.356Z,102553.10
2022-10-17T09:57:23.324Z,102553.59
2022-10-17T10:00:02.690Z,102553.76
2022-10-17T10:02:33.522Z,102553.46
2022-10-17T10:05:17.509Z,102556.86
2022-10-17T10:08:01.407Z,102557.81
2022-10-17T10:10:31.194Z,102561.02
2022-10-17T10:13:14.045Z,102553.95
2022-10-17T10:15:47.265Z,102558.63
2022-10-17T10:18:35.053Z,102559.45
2022-10-17T10:21:10.941Z,102558.79
2022-10-17T10:23:41.245Z,102557.84
2022-10-17T10:26:25.389Z,102553.85
2022-10-17T10:29:00.143Z,102554.34
2022-10-17T10:31:39.453Z,102554.97
2022-10-17T10:34:21.675Z,102556.57
2022-10-17T10:36:57.925Z,102559.28
2022-10-17T10:39:33.159Z,102553.36
2022-10-17T10:42:03.177Z,102560.88
2022-10-17T10:44:33.344Z,102563.47
2022-10-17T10:47:31.867Z,102559.48
2022-10-17T10:50:32.223Z,102554.18
2022-10-17T10:53:34.898Z,102548.59
2022-10-17T10:56:23.362Z,102553.04
2022-10-17T10:59:00.399Z,102559.12
2022-10-17T11:01:46.462Z,102555.75
2022-10-17T11:04:19.891Z,102554.90
2022-10-17T11:06:48.782Z,102551.20
2022-10-17T11:09:53.834Z,102551.50
2022-10-17T11:12:36.702Z,102547.28
2022-10-17T11:15:23.419Z,102541.43
2022-10-17T11:18:06.144Z,102544.80
2022-10-17T11:20:58.850Z,102536.55
2022-10-17T11:23:32.428Z,102533.65
2022-10-17T11:26:03.816Z,102527.46
2022-10-17T11:28:32.709Z,102524.23
2022-10-17T11:31:09.019Z,102518.41
2022-10-17T11:33:58.088Z,102522.52
2022-10-17T11:36:31.727Z,102520.47
2022-10-17T11:39:09.954Z,102514.91
2022-10-17T11:41:45.130Z,102518.80
2022-10-17T11:44:43.673Z,102515.37
2022-10-17T11:47:42.060Z,102522.95
2022-10-17T11:53:45.719Z,102527.95
2022-10-17T11:56:18.279Z,102520.76
2022-10-17T11:59:14.354Z,102520.14
2022-10-17T12:01:51.305Z,102515.04
2022-10-17T12:04:24.847Z,102505.42
2022-10-17T12:07:23.434Z,102512.48
2022-10-17T12:10:07.635Z,102511.87
2022-10-17T12:12:36.336Z,102507.81
2022-10-17T12:15:12.756Z,102515.37
2022-10-17T12:17:47.794Z,102506.54
2022-10-17T12:20:21.787Z,102497.19
2022-10-17T12:22:54.260Z,102505.23
2022-10-17T12:25:55.936Z,102500.59
2022-10-17T12:28:28.551Z,102494.90
2022-10-17T12:31:03.792Z,102492.61
2022-10-17T12:33:34.778Z,102485.28
2022-10-17T12:36:31.831Z,102481.39
2022-10-17T12:39:02.618Z,102475.96
2022-10-17T12:41:39.102Z,102483.71
2022-10-17T12:44:15.719Z,102476.12
2022-10-17T12:46:47.408Z,102482.53
2022-10-17T12:49:24.538Z,102469.12
2022-10-17T12:52:23.173Z,102468.41
2022-10-17T12:55:10.894Z,102471.94
2022-10-17T12:57:59.988Z,102466.41
2022-10-17T13:00:59.466Z,102468.84
2022-10-17T13:03:36.067Z,102463.02
2022-10-17T13:06:07.539Z,102472.23
2022-10-17T13:08:40.248Z,102469.52
2022-10-17T13:11:09.303Z,102466.58
2022-10-17T13:13:46.460Z,102461.21
2022-10-17T13:16:32.531Z,102465.11
2022-10-17T13:19:02.337Z,102462.98
2022-10-17T13:21:30.375Z,102456.87
2022-10-17T13:23:58.096Z,102464.74
2022-10-17T13:26:28.375Z,102459.35
2022-10-17T13:29:13.989Z,102464.62
2022-10-17T13:31:44.508Z,102461.67
2022-10-17T13:34:21.685Z,102454.22
2022-10-17T13:36:52.953Z,102465.79
2022-10-17T13:39:38.352Z,102458.08
2022-10-17T13:42:27.347Z,102469.91
2022-10-17T13:44:56.179Z,102462.23
2022-10-17T13:47:37.761Z,102465.89
2022-10-17T13:50:12.783Z,102469.78
2022-10-17T13:52:49.059Z,102461.84
2022-10-17T13:55:21.111Z,102460.76
2022-10-17T13:57:49.447Z,102462.55
2022-10-17T14:00:22.769Z,102467.59
2022-10-17T14:02:50.516Z,102464.38
2022-10-17T14:05:24.438Z,102455.10
2022-10-17T14:08:19.002Z,102455.66
2022-10-17T14:10:46.391Z,102462.75
2022-10-17T14:13:26.768Z,102462.16
2022-10-17T14:15:56.708Z,102457.39
2022-10-17T14:18:35.990Z,102464.22
2022-10-17T14:21:34.415Z,102460.23
2022-10-17T14:24:12.997Z,102453.63
2022-10-17T14:26:52.362Z,102454.94
2022-10-17T14:29:29.515Z,102450.95
2022-10-17T14:32:11.980Z,102447.74
2022-10-17T14:34:41.849Z,102452.45
2022-10-17T14:37:12.641Z,102459.55
2022-10-17T14:39:40.604Z,102456.38
2022-10-17T14:42:08.305Z,102469.55
2022-10-17T14:44:37.540Z,102462.16
2022-10-17T14:47:30.887Z,102453.20
2022-10-17T14:50:21.169Z,102466.38
2022-10-17T14:53:03.995Z,102457.20
2022-10-17T14:55:34.338Z,102456.08
2022-10-17T14:58:02.331Z,102456.90
2022-10-17T15:00:30.129Z,102444.51
2022-10-17T15:02:57.869Z,102453.20
2022-10-17T15:05:26.131Z,102447.68
2022-10-17T15:07:54.858Z,102453.27
2022-10-17T15:10:34.275Z,102456.73
2022-10-17T15:13:27.093Z,102452.84
2022-10-17T15:15:52.976Z,102449.41
2022-10-17T15:18:20.715Z,102448.69
2022-10-17T15:20:55.286Z,102451.86
2022-10-17T15:23:32.377Z,102450.55
2022-10-17T15:26:00.102Z,102454.28
2022-10-17T15:28:28.444Z,102456.15
2022-10-17T15:30:56.097Z,102456.96
2022-10-17T15:33:23.763Z,102457.52
2022-10-17T15:35:52.749Z,102453.79
2022-10-17T15:38:20.633Z,102461.70
2022-10-17T15:40:51.872Z,102459.32
2022-10-17T15:43:19.984Z,102454.84
2022-10-17T15:45:48.366Z,102457.45
2022-10-17T15:48:23.491Z,102457.95
2022-10-17T15:50:51.137Z,102458.70
2022-10-17T15:53:18.783Z,102474.78
2022-10-17T15:55:47.014Z,102480.31
2022-10-17T15:58:20.003Z,102478.94
2022-10-17T16:00:48.664Z,102480.73
2022-10-17T16:03:16.496Z,102475.73
2022-10-17T16:05:44.188Z,102484.14
2022-10-17T16:08:12.114Z,102490.25
2022-10-17T16:10:41.526Z,102480.45
2022-10-17T16:13:18.960Z,102481.23
2022-10-17T16:15:46.843Z,102479.36
2022-10-17T16:18:14.589Z,102477.20
2022-10-17T16:20:42.946Z,102487.99
2022-10-17T16:23:13.553Z,102490.32
2022-10-17T16:25:41.953Z,102493.42
2022-10-17T16:28:10.062Z,102492.80
2022-10-17T16:30:43.618Z,102493.03
2022-10-17T16:33:11.771Z,102497.74
2022-10-17T16:35:39.795Z,102495.84
2022-10-17T16:38:08.761Z,102498.23
2022-10-17T16:40:39.444Z,102497.87
2022-10-17T16:43:07.530Z,102493.09
2022-10-17T16:45:35.260Z,102503.10
2022-10-17T16:48:03.022Z,102500.09
2022-10-17T16:50:32.346Z,102499.51
2022-10-17T16:52:59.952Z,102501.01
2022-10-17T16:55:27.827Z,102496.23
2022-10-17T16:57:55.514Z,102510.92
2022-10-17T17:00:23.303Z,102514.32
2022-10-17T17:02:51.080Z,102519.23
2022-10-17T17:05:18.818Z,102520.14
2022-10-17T17:07:48.818Z,102528.15
2022-10-17T17:10:16.755Z,102524.55
2022-10-17T17:12:44.655Z,102525.96
2022-10-17T17:15:12.330Z,102538.13
2022-10-17T17:17:55.851Z,102541.59
2022-10-17T17:20:23.835Z,102541.07
2022-10-17T17:22:52.949Z,102543.42
2022-10-17T17:25:20.660Z,102541.92
2022-10-17T17:27:48.355Z,102547.94
2022-10-17T17:30:16.445Z,102554.80
2022-10-17T17:32:44.155Z,102551.66
2022-10-17T17:35:11.807Z,102558.30
2022-10-17T17:37:39.460Z,102552.28
2022-10-17T17:40:07.682Z,102560.95
2022-10-17T17:42:35.301Z,102556.02
2022-10-17T17:45:02.971Z,102556.08
2022-10-17T17:47:30.978Z,102563.47
2022-10-17T17:49:58.793Z,102563.04
2022-10-17T17:52:26.714Z,102571.71
2022-10-17T17:54:54.467Z,102570.47
2022-10-17T17:57:22.602Z,102580.73
2022-10-17T17:59:50.907Z,102583.94
2022-10-17T18:02:18.713Z,102581.42
2022-10-17T18:04:46.442Z,102593.13
2022-10-17T18:07:14.151Z,102596.33
2022-10-17T18:09:41.792Z,102591.69
2022-10-17T18:12:09.366Z,102597.61
2022-10-17T18:14:36.993Z,102604.51
2022-10-17T18:17:04.573Z,102605.00
2022-10-17T18:19:32.253Z,102612.23
2022-10-17T18:21:59.980Z,102605.78
2022-10-17T18:24:27.640Z,102603.52
2022-10-17T18:26:59.969Z,102605.26
2022-10-17T18:29:28.681Z,102613.11
2022-10-17T18:31:56.903Z,102605.42
2022-10-17T18:34:24.623Z,102608.30
2022-10-17T18:36:53.933Z,102613.47
2022-10-17T18:39:21.681Z,102617.13
2022-10-17T18:41:49.306Z,102619.02
2022-10-17T18:44:17.972Z,102614.74
2022-10-17T18:49:20.385Z,102613.83
2022-10-17T18:51:48.218Z,102614.45
2022-10-17T18:54:22.402Z,102609.31
2022-10-17T18:56:54.783Z,102610.75
2022-10-17T18:59:22.977Z,102602.45
2022-10-17T19:01:50.716Z,102612.52
2022-10-17T19:04:18.357Z,102623.90
2022-10-17T19:06:46.513Z,102612.68
2022-10-17T19:09:15.588Z,102609.15
2022-10-17T19:11:44.099Z,102605.12
2022-10-17T19:14:16.090Z,102606.24
2022-10-17T19:16:50.121Z,102606.11
2022-10-17T19:19:21.589Z,102601.47
2022-10-17T19:21:50.111Z,102604.96
2022-10-17T19:24:23.535Z,102598.72
2022-10-17T19:26:54.591Z,102598.20
2022-10-17T19:29:24.754Z,102603.98
2022-10-17T19:31:52.931Z,102601.92
2022-10-17T19:34:20.958Z,102609.73
2022-10-17T19:36:48.826Z,102609.12
2022-10-17T19:39:19.486Z,102608.82
2022-10-17T19:41:48.679Z,102608.17
2022-10-17T19:44:17.528Z,102616.67
2022-10-17T19:46:50.194Z,102624.39
2022-10-17T19:49:18.876Z,102626.28
2022-10-17T19:51:46.885Z,102637.99
2022-10-17T19:54:16.172Z,102640.37
2022-10-17T19:56:44.522Z,102636.84
2022-10-17T19:59:15.278Z,102633.80
2022-10-17T20:01:43.319Z,102633.12
2022-10-17T20:04:12.084Z,102632.83
2022-10-17T20:06:41.084Z,102628.48
2022-10-17T20:09:13.889Z,102630.73
2022-10-17T20:11:44.502Z,102628.31
2022-10-17T20:14:12.156Z,102629.42
2022-10-17T20:16:39.849Z,102629.09
2022-10-17T20:19:10.881Z,102627.95
2022-10-17T20:21:40.656Z,102624.91
2022-10-17T20:24:12.310Z,102638.68
2022-10-17T20:26:40.866Z,102645.05
2022-10-17T20:29:13.561Z,102647.28
2022-10-17T20:31:43.245Z,102644.23
2022-10-17T20:34:14.123Z,102649.30
2022-10-17T20:36:42.086Z,102659.87
2022-10-17T20:39:13.319Z,102652.31
2022-10-17T20:41:41.897Z,102658.56
2022-10-17T20:44:10.357Z,102664.77
2022-10-17T20:46:44.425Z,102657.41
2022-10-17T20:49:19.211Z,102657.41
2022-10-17T20:51:47.609Z,102657.55
2022-10-17T20:54:15.307Z,102674.02
2022-10-17T20:56:43.076Z,102674.16
2022-10-17T20:59:17.242Z,102677.85
2022-10-17T21:01:46.389Z,102668.89
2022-10-17T21:07:02.229Z,102674.32
2022-10-17T21:09:29.903Z,102676.88
2022-10-17T21:11:58.063Z,102677.49
2022-10-17T21:14:26.242Z,102672.66
2022-10-17T21:16:54.237Z,102670.73
2022-10-17T21:19:23.207Z,102667.52
2022-10-17T21:21:51.602Z,102669.58
2022-10-17T21:24:21.590Z,102669.25
2022-10-17T21:26:54.614Z,102668.92
2022-10-17T21:29:23.608Z,102672.26
2022-10-17T21:31:51.832Z,102668.24
2022-10-17T21:34:28.877Z,102660.55
2022-10-17T21:36:56.574Z,102667.91
2022-10-17T21:39:27.238Z,102672.06
2022-10-17T21:41:55.061Z,102664.38
2022-10-17T21:44:25.611Z,102666.11
2022-10-17T21:46:54.026Z,102668.99
2022-10-17T21:49:23.915Z,102655.84
2022-10-17T21:51:52.901Z,102664.61
2022-10-17T21:54:21.993Z,102667.48
2022-10-17T21:56:49.782Z,102665.88
2022-10-17T21:59:17.667Z,102667.62
2022-10-17T22:01:46.973Z,102663.14
2022-10-17T22:04:17.020Z,102656.59
2022-10-17T22:06:46.894Z,102652.91
2022-10-17T22:09:17.460Z,102646.82
2022-10-17T22:11:47.981Z,102654.30
2022-10-17T22:14:18.305Z,102662.16
2022-10-17T22:16:47.452Z,102657.32
2022-10-17T22:19:18.250Z,102669.19
2022-10-17T22:21:46.326Z,102658.79
2022-10-17T22:24:16.162Z,102656.86
2022-10-17T22:26:45.615Z,102664.34
2022-10-17T22:29:13.966Z,102662.29
2022-10-17T22:31:41.774Z,102658.13
2022-10-17T22:34:11.523Z,102651.56
2022-10-17T22:36:39.165Z,102658.27
2022-10-17T22:39:06.965Z,102655.84
2022-10-17T22:41:35.184Z,102662.55
2022-10-17T22:44:03.130Z,102658.40
2022-10-17T22:46:31.117Z,102664.64
2022-10-17T22:48:58.796Z,102667.16
2022-10-17T22:51:26.525Z,102665.55
2022-10-17T22:53:54.140Z,102664.77
2022-10-17T22:56:22.742Z,102664.77
2022-10-17T22:58:50.751Z,102666.48
2022-10-17T23:01:21.694Z,102668.53
2022-10-17T23:03:49.445Z,102660.39
2022-10-17T23:06:17.431Z,102657.41
2022-10-17T23:08:45.539Z,102666.02
2022-10-17T23:11:13.553Z,102661.90
2022-10-17T23:13:41.958Z,102657.55
2022-10-17T23:16:10.126Z,102659.57
2022-10-17T23:18:38.782Z,102662.12
2022-10-17T23:21:07.256Z,102660.65
2022-10-17T23:23:35.025Z,102663.98
2022-10-17T23:26:07.756Z,102656.30
2022-10-17T23:28:36.503Z,102652.64
2022-10-17T23:31:19.245Z,102657.25
2022-10-17T23:33:48.622Z,102648.42
2022-10-17T23:36:18.452Z,102652.54
2022-10-17T23:38:47.181Z,102655.78
2022-10-17T23:41:15.926Z,102653.98
2022-10-17T23:43:44.039Z,102662.62
2022-10-17T23:46:12.109Z,102659.41
2022-10-17T23:48:40.498Z,102655.81
2022-10-17T23:51:09.797Z,102651.34
2022-10-17T23:53:38.377Z,102648.95
2022-10-17T23:56:07.483Z,102647.67
2022-10-17T23:58:35.755Z,102651.01
